• Join FlightAware (Why Join?)
  • Login
  • US Flag 
11:19PM EDT


 

Airport Tracker/Info


-or-


 

Live Flight TrackerFlight Track Log ✈ EJA929 ✈ 11-Jun-2013 ✈ KPHX - KMDW

Flight Track Log - Related Links

Times and Time Zones

All times are in EDT time to prevent confusion due to time zone crossing. See the EJA929 flight status page for this flight to view local times or setup timezone preferences in your user account.

Time Position Orientation Groundspeed Altitude Reporting Facility
EDT Latitude Longitude Course Direction KTS MPH feet Rate Location/Type
05:02PM 33.4333 -112.0500 270° West 167 192 1,900  Level Phoenix TRACON
05:03PM 33.4333 -112.1167 270° West 219 252 4,100 1,980 Climbing Phoenix TRACON
05:04PM 33.4689 -112.1917 300° West 263 303 6,500 2,100 Climbing Albuquerque Center
05:05PM 33.5600 -112.1681 12° North 287 330 8,900 2,040 Climbing Albuquerque Center
05:06PM 33.6192 -112.1036 42° Northeast 318 366 10,700 1,020 Climbing Albuquerque Center
05:07PM 33.6269 -111.9847 85° East 364 419 11,100 780 Climbing Albuquerque Center
05:08PM 33.6375 -111.8544 84° East 393 452 12,400 1,800 Climbing Albuquerque Center
05:09PM 33.6489 -111.7256 84° East 394 453 14,800 2,460 Climbing Albuquerque Center
05:10PM 33.6583 -111.6083 84° East 362 417 17,500 2,520 Climbing Albuquerque Center
05:11PM 33.6700 -111.4728 84° East 346 398 20,000 1,980 Climbing Albuquerque Center
05:12PM 33.6806 -111.3536 84° East 359 413 21,600 1,560 Climbing Albuquerque Center
05:13PM 33.7000 -111.2308 79° East 377 434 23,300 1,740 Climbing Albuquerque Center
05:14PM 33.7433 -111.1117 66° East 391 450 25,200 1,800 Climbing Albuquerque Center
05:15PM 33.7875 -110.9875 67° East 403 464 27,000 1,680 Climbing Albuquerque Center
05:16PM 33.8425 -110.8669 61° Northeast 409 471 28,700 1,680 Climbing Albuquerque Center
05:17PM 33.8989 -110.7433 61° Northeast 417 480 30,500 1,920 Climbing Albuquerque Center
05:18PM 33.9681 -110.5900 61° Northeast 431 496 32,700 1,800 Climbing Albuquerque Center
05:19PM 34.0211 -110.4725 61° Northeast 442 509 34,300 1,500 Climbing Albuquerque Center
05:20PM 34.0806 -110.3394 62° Northeast 449 517 35,900 1,320 Climbing Albuquerque Center
05:21PM 34.1550 -110.1758 61° Northeast 461 531 37,100 1,020 Climbing Albuquerque Center
05:22PM 34.2214 -110.0219 62° Northeast 485 558 38,000 900 Climbing Albuquerque Center
05:23PM 34.2856 -109.8803 61° Northeast 498 573 39,000 1,260 Climbing Albuquerque Center
05:24PM 34.3583 -109.7136 62° Northeast 503 579 40,700 960 Climbing Albuquerque Center
05:25PM 34.4222 -109.5703 62° Northeast 504 580 41,000 120 Climbing Albuquerque Center
05:26PM 34.4972 -109.3992 62° Northeast 512 589 41,000  Level Albuquerque Center
05:27PM 34.5631 -109.2489 62° Northeast 523 602 41,000  Level Albuquerque Center
05:28PM 34.6281 -109.0928 63° Northeast 534 615 41,000  Level Albuquerque Center
05:30PM 34.7050 -108.9128 62° Northeast 539 620 41,000  Level Albuquerque Center
05:31PM 34.7722 -108.7586 62° Northeast 541 623 41,000  Level Albuquerque Center
05:32PM 34.8494 -108.5781 62° Northeast 542 624 41,000  Level Albuquerque Center
05:33PM 34.9156 -108.4231 62° Northeast 543 625 41,000  Level Albuquerque Center
05:34PM 34.9922 -108.2411 63° Northeast 543 625 41,000  Level Albuquerque Center
05:35PM 35.0575 -108.0858 63° Northeast 541 623 41,000  Level Albuquerque Center
05:36PM 35.1344 -107.9025 63° Northeast 544 626 41,000  Level Albuquerque Center
05:37PM 35.1981 -107.7489 63° Northeast 538 619 41,000  Level Albuquerque Center
05:38PM 35.2719 -107.5694 63° Northeast 533 613 41,000  Level Albuquerque Center
05:39PM 35.3358 -107.4161 63° Northeast 539 620 41,000  Level Albuquerque Center
05:40PM 35.4128 -107.2272 63° Northeast 544 626 41,000  Level Albuquerque Center
05:41PM 35.4731 -107.0814 63° Northeast 543 625 41,000  Level Albuquerque Center
05:42PM 35.5397 -106.9161 64° Northeast 539 620 41,000  Level Albuquerque Center
05:43PM 35.6069 -106.7506 63° Northeast 538 619 41,000  Level Albuquerque Center
05:44PM 35.6775 -106.5764 63° Northeast 533 613 41,000  Level Albuquerque Center
05:45PM 35.7486 -106.3944 64° Northeast 532 612 41,000  Level Albuquerque Center
05:46PM 35.8119 -106.2381 63° Northeast 532 612 41,000  Level Albuquerque Center
05:47PM 35.8814 -106.0611 64° Northeast 533 613 41,000  Level Albuquerque Center
05:48PM 35.9444 -105.8989 64° Northeast 528 608 41,000  Level Albuquerque Center
05:49PM 36.0078 -105.7367 64° Northeast 525 604 41,000  Level Albuquerque Center
05:50PM 36.0722 -105.5697 64° Northeast 532 612 41,000  Level Albuquerque Center
05:51PM 36.1392 -105.3953 65° Northeast 537 618 41,000  Level Albuquerque Center
05:52PM 36.1856 -105.2164 72° East 539 620 41,000  Level Albuquerque Center
05:53PM 36.2361 -105.0111 73° East 532 612 41,000  Level Albuquerque Center
05:54PM 36.2797 -104.8364 73° East 526 605 41,000  Level Albuquerque Center
05:55PM 36.3247 -104.6578 73° East 533 613 41,000  Level Albuquerque Center
05:56PM 36.3706 -104.4778 72° East 539 620 41,000  Level Albuquerque Center
05:57PM 36.4247 -104.3003 69° East 544 626 41,000  Level Albuquerque Center
05:58PM 36.4911 -104.1278 64° Northeast 548 631 41,000  Level Albuquerque Center
05:59PM 36.5567 -103.9561 65° Northeast 546 628 41,000  Level Albuquerque Center
06:00PM 36.6239 -103.7819 64° Northeast 550 633 41,000  Level Albuquerque Center
06:01PM 36.6917 -103.5978 65° Northeast 549 632 41,000  Level Albuquerque Center
06:02PM 36.7533 -103.4358 65° Northeast 544 626 41,000  Level Albuquerque Center
06:03PM 36.8258 -103.2425 65° Northeast 550 633 41,000  Level Albuquerque Center
06:05PM 36.8875 -103.0750 65° Northeast 555 639 41,000  Level Albuquerque Center
06:06PM 36.9594 -102.8781 65° Northeast 559 643 41,000  Level Albuquerque Center
06:07PM 37.0200 -102.7136 65° Northeast 551 634 41,000  Level Albuquerque Center
06:08PM 37.0894 -102.5197 66° East 548 631 41,000  Level Albuquerque Center
06:09PM 37.1553 -102.3397 65° Northeast 546 628 41,000  Level Kansas City Center
06:10PM 37.2250 -102.1467 66° East 545 627 41,000  Level Kansas City Center
06:11PM 37.2842 -101.9817 66° East 544 626 41,000  Level Kansas City Center
06:12PM 37.3531 -101.7883 66° East 543 625 41,000  Level Kansas City Center
06:13PM 37.4108 -101.6225 66° East 543 625 41,000  Level Kansas City Center
06:14PM 37.4786 -101.4292 66° East 541 623 41,000  Level Kansas City Center
06:15PM 37.5350 -101.2644 67° East 537 618 41,000  Level Kansas City Center
06:16PM 37.5944 -101.0950 66° East 538 619 41,000  Level Kansas City Center
06:17PM 37.6539 -100.9222 66° East 536 617 41,000  Level Kansas City Center
06:18PM 37.7189 -100.7372 66° East 553 636 41,000  Level Kansas City Center
06:19PM 37.7892 -100.5311 67° East 539 620 41,000  Level Kansas City Center
06:20PM 37.8475 -100.3592 67° East 539 620 41,000  Level Kansas City Center
06:21PM 37.9031 -100.1914 67° East 541 623 41,000  Level Kansas City Center
06:22PM 37.9686 -99.9967 67° East 539 620 41,000  Level Kansas City Center
06:23PM 38.0231 -99.8292 68° East 538 619 41,000  Level Kansas City Center
06:24PM 38.0886 -99.6328 67° East 540 621 41,000  Level Kansas City Center
06:25PM 38.1436 -99.4614 68° East 539 620 41,000  Level Kansas City Center
06:26PM 38.2014 -99.2850 67° East 539 620 41,000  Level Kansas City Center
06:27PM 38.2594 -99.1100 67° East 537 618 41,000  Level Kansas City Center
06:28PM 38.3153 -98.9319 68° East 540 621 41,000  Level Kansas City Center
06:29PM 38.3736 -98.7544 67° East 544 626 41,000  Level Kansas City Center
06:30PM 38.4425 -98.5419 67° East 539 620 41,000  Level Kansas City Center
06:32PM 38.4981 -98.3617 68° East 542 624 41,000  Level Kansas City Center
06:33PM 38.5569 -98.1769 68° East 543 625 41,000  Level Kansas City Center
06:34PM 38.6114 -98.0042 68° East 538 619 41,000  Level Kansas City Center
06:35PM 38.6664 -97.8269 68° East 534 615 41,000  Level Kansas City Center
06:36PM 38.7214 -97.6478 68° East 533 613 41,000  Level Kansas City Center
06:37PM 38.7761 -97.4719 68° East 535 616 41,000  Level Kansas City Center
06:38PM 38.8406 -97.2581 69° East 535 616 41,000  Level Kansas City Center
06:39PM 38.8933 -97.0811 69° East 532 612 41,000  Level Kansas City Center
06:40PM 38.9458 -96.9044 69° East 530 610 41,000  Level Kansas City Center
06:41PM 39.0036 -96.7136 69° East 535 616 41,000  Level Kansas City Center
06:42PM 39.0556 -96.5425 69° East 536 617 41,000  Level Kansas City Center
06:43PM 39.1131 -96.3400 70° East 539 620 41,000  Level Kansas City Center
06:44PM 39.1631 -96.1672 69° East 537 618 41,000  Level Kansas City Center
06:45PM 39.2222 -95.9644 69° East 539 620 41,000  Level Kansas City Center
06:46PM 39.2725 -95.7897 70° East 540 621 41,000  Level Kansas City Center
06:47PM 39.3228 -95.6161 69° East 538 619 41,000  Level Kansas City Center
06:48PM 39.3842 -95.4019 70° East 535 616 41,000  Level Kansas City Center
06:49PM 39.4353 -95.2200 70° East 539 620 41,000  Level Kansas City Center
06:50PM 39.4892 -95.0289 70° East 539 620 41,000  Level Kansas City Center
06:51PM 39.5378 -94.8539 70° East 538 619 41,000  Level Kansas City Center
06:52PM 39.5861 -94.6781 70° East 539 620 41,000  Level Kansas City Center
06:53PM 39.6411 -94.4736 71° East 537 618 41,000  Level Kansas City Center
06:54PM 39.6892 -94.2981 70° East 538 619 41,000  Level Kansas City Center
06:55PM 39.7433 -94.0939 71° East 536 617 41,000  Level Kansas City Center
06:56PM 39.7914 -93.9169 70° East 541 623 41,000  Level Kansas City Center
06:57PM 39.8383 -93.7325 72° East 544 626 41,000  Level Kansas City Center
06:58PM 39.8964 -93.5156 71° East 536 617 41,000  Level Kansas City Center
06:59PM 39.9433 -93.3342 71° East 536 617 41,000  Level Kansas City Center
07:00PM 39.9903 -93.1542 71° East 533 613 41,000  Level Kansas City Center
07:01PM 40.0375 -92.9725 71° East 534 615 41,000 -900 Level Kansas City Center
07:02PM 40.0867 -92.7772 72° East 526 605 39,200 -1,980 Descending Kansas City Center
07:04PM 40.1342 -92.5767 73° East 519 597 37,000 -1,080 Descending Kansas City Center
07:05PM 40.1756 -92.3956 73° East 538 619 37,000  Level Kansas City Center
07:06PM 40.2128 -92.2139 75° East 547 629 37,000  Level Kansas City Center
07:07PM 40.2586 -91.9892 75° East 544 626 37,000  Level Kansas City Center
07:08PM 40.2964 -91.8011 75° East 540 621 37,000 -60 Level Kansas City Center
07:09PM 40.3347 -91.6069 75° East 551 634 36,900 -1,020 Descending Kansas City Center
07:10PM 40.3731 -91.4158 75° East 547 629 34,900 -1,920 Descending Kansas City Center
07:11PM 40.4125 -91.2144 76° East 551 634 33,000 -1,920 Descending Kansas City Center
07:12PM 40.4511 -91.0200 75° East 554 638 31,300 -1,080 Descending Chicago Center
07:13PM 40.4867 -90.8278 76° East 545 627 31,000 -180 Descending Chicago Center
07:14PM 40.5247 -90.6333 76° East 548 631 31,000 -540 Level Chicago Center
07:15PM 40.5606 -90.4383 76° East 549 632 30,000 -1,380 Descending Chicago Center
07:16PM 40.5983 -90.2369 76° East 530 610 28,200 -1,740 Descending Chicago Center
07:17PM 40.6319 -90.0558 76° East 516 594 26,500 -2,100 Descending Chicago Center
07:18PM 40.6706 -89.8383 77° East 513 590 23,900 -2,340 Descending Chicago Center
07:19PM 40.7283 -89.6758 65° Northeast 485 558 21,700 -2,160 Descending Chicago Center
07:20PM 40.7992 -89.5181 59° Northeast 474 545 19,500 -2,040 Descending Chicago Center
07:21PM 40.8608 -89.3769 60° Northeast 445 512 17,500 -1,320 Descending Chicago Center
07:22PM 40.9222 -89.2339 60° Northeast 447 514 16,800 -1,260 Descending Chicago Center
07:23PM 40.9808 -89.0903 62° Northeast 441 507 15,000 -2,100 Descending Chicago Center
07:24PM 41.0608 -88.9525 52° Northeast 413 475 12,500 -1,740 Descending Chicago Center
07:25PM 41.1306 -88.8594 45° Northeast 363 418 11,500 -960 Descending Chicago Center
07:26PM 41.1919 -88.7772 45° Northeast 318 366 10,600 -960 Descending Chicago Center
07:27PM 41.2539 -88.6967 44° Northeast 312 359 9,600 -960 Descending Chicago Center
07:28PM 41.3150 -88.6186 44° Northeast 307 353 8,700 -900 Descending Chicago Center
07:29PM 41.3833 -88.5228 46° Northeast 299 344 7,800 -1,020 Descending Chicago Center
07:30PM 41.4322 -88.4356 53° Northeast 296 341 6,600 -1,380 Descending Chicago Center
07:31PM 41.4811 -88.3575 50° Northeast 280 322 5,000 -780 Descending Chicago Center
07:32PM 41.5144 -88.2653 64° Northeast 287 330 5,000  Level Chicago Center
07:33PM 41.5319 -88.1628 77° East 284 327 5,000 -900 Level Chicago Center
07:34PM 41.5517 -88.0592 76° East 284 327 3,200 -1,020 Descending Chicago Center
07:35PM 41.5733 -87.9567 74° East 284 327 3,000 -120 Descending Chicago Center
07:36PM 41.5978 -87.8353 75° East 283 326 3,000  Level Chicago Center
07:38PM 41.6164 -87.7497 74° East 258 297 3,000 -60 Level Chicago Center
07:39PM 41.6361 -87.6797 69° East 222 255 2,900 -300 Descending Chicago Center
07:40PM 41.6808 -87.6367 36° Northeast 216 249 2,500 -360 Descending Chicago Center
07:41PM 41.7239 -87.6667 333° Northwest 204 235 2,200 -420 Descending Chicago Center
07:42PM 41.7775 -87.6758 353° North 193 222 1,700 -300 Descending Chicago Center
07:43PM 41.8136 -87.6642 14° North 164 189 1,600 -180 Descending Chicago Center
07:44PM 41.8233 -87.7067 287° West 143 165 1,400 -360 Descending Chicago Center
07:45PM 41.7933 -87.7408 220° Southwest 135 155 900 -540 Descending Chicago Center